Time;durP1;ratioP1;P1;durP2;ratioP2;P2;SDS_P1;SDS_P2;PMS_P1;PMS_P2;Temp;Humidity;BMP_temperature;BMP_pressure;BME280_temperature;BME280_humidity;BME280_pressure;Samples;Min_cycle;Max_cycle;Signal;HPM_P1;HPM_P2
2021/10/06 00:00:33;;;;;;;9.55;1.92;;;;;;;13.16;72.84;101067.75;5058081;28;20045;-70
2021/10/06 00:03:00;;;;;;;16.08;2.42;;;;;;;13.04;73.31;101067.56;5057804;28;20060;-70
2021/10/06 00:05:28;;;;;;;12.10;2.13;;;;;;;13.15;73.21;101076.38;5056550;28;20061;-69
2021/10/06 00:07:55;;;;;;;13.07;1.75;;;;;;;13.37;72.67;101081.81;5056663;28;20407;-71
2021/10/06 00:10:23;;;;;;;12.57;1.80;;;;;;;13.04;72.47;101091.66;5056428;28;20052;-70
2021/10/06 00:12:50;;;;;;;17.15;2.08;;;;;;;13.28;72.78;101089.28;5057355;28;20045;-70
2021/10/06 00:15:17;;;;;;;18.90;1.92;;;;;;;13.21;72.24;101097.22;5055737;28;20064;-71
2021/10/06 00:17:45;;;;;;;13.38;1.90;;;;;;;13.23;72.62;101097.72;5057455;28;20064;-70
2021/10/06 00:20:13;;;;;;;9.48;2.00;;;;;;;13.33;72.42;101106.53;5038346;28;20405;-70
2021/10/06 00:22:40;;;;;;;12.68;1.98;;;;;;;13.33;71.90;101106.53;5035957;28;20060;-72
2021/10/06 00:25:08;;;;;;;13.50;1.70;;;;;;;13.56;71.57;101108.03;5037135;28;20057;-72
2021/10/06 00:27:35;;;;;;;12.32;1.63;;;;;;;13.22;71.56;101121.78;5052633;28;20057;-70
2021/10/06 00:30:03;;;;;;;14.48;2.40;;;;;;;12.97;72.48;101121.69;5036206;28;20057;-71
2021/10/06 00:32:30;;;;;;;12.60;1.63;;;;;;;12.74;74.04;101120.13;5037585;28;20061;-71
2021/10/06 00:34:58;;;;;;;14.48;2.90;;;;;;;12.97;73.22;101118.91;5037460;28;20390;-69
2021/10/06 00:37:25;;;;;;;11.50;1.90;;;;;;;13.10;72.73;101118.84;5037416;28;20061;-72
2021/10/06 00:39:52;;;;;;;13.50;2.40;;;;;;;12.99;73.32;101125.75;5049508;28;20057;-72
2021/10/06 00:42:19;;;;;;;10.10;1.95;;;;;;;13.11;73.06;101116.88;5056935;28;20065;-70
2021/10/06 00:44:47;;;;;;;15.30;2.63;;;;;;;13.16;72.54;101114.75;5056980;28;20049;-70
2021/10/06 00:47:14;;;;;;;9.57;1.70;;;;;;;13.36;72.58;101129.97;5057007;28;20053;-71
2021/10/06 00:49:42;;;;;;;8.43;1.45;;;;;;;13.27;72.52;101127.19;5057438;28;20071;-71
2021/10/06 00:52:13;;;;;;;11.95;1.83;;;;;;;13.18;73.25;101140.16;5056992;28;20045;-70
2021/10/06 00:54:41;;;;;;;11.88;2.38;;;;;;;13.05;73.48;101124.50;5056751;28;20064;-71
2021/10/06 00:57:10;;;;;;;13.75;2.25;;;;;;;13.05;74.06;101135.56;5056714;28;20053;-72
2021/10/06 00:59:37;;;;;;;9.63;1.70;;;;;;;13.02;73.97;101138.16;5057698;28;20048;-71
2021/10/06 01:02:05;;;;;;;15.90;2.17;;;;;;;13.16;72.92;101138.88;5060047;28;20041;-70
2021/10/06 01:04:33;;;;;;;16.30;2.83;;;;;;;12.99;73.86;101136.00;5042651;28;20045;-70
2021/10/06 01:07:00;;;;;;;19.58;2.33;;;;;;;12.83;74.38;101134.78;5058001;28;20052;-70
2021/10/06 01:09:29;;;;;;;11.52;1.85;;;;;;;13.10;73.39;101138.19;5057572;28;20045;-70
2021/10/06 01:11:57;;;;;;;8.52;1.70;;;;;;;12.93;74.48;101138.09;5056852;28;20045;-71
2021/10/06 01:14:25;;;;;;;7.32;1.27;;;;;;;12.65;74.86;101138.59;5056357;28;20057;-71
2021/10/06 01:16:53;;;;;;;9.23;1.80;;;;;;;12.81;75.59;101135.13;5056448;28;20080;-70
2021/10/06 01:19:24;;;;;;;12.10;1.67;;;;;;;12.87;75.08;101138.53;5055561;28;20052;-70
2021/10/06 01:21:53;;;;;;;16.38;1.63;;;;;;;12.80;74.71;101141.75;5030898;28;20053;-70
2021/10/06 01:24:22;;;;;;;11.07;1.80;;;;;;;12.66;75.49;101135.50;5016157;28;20497;-69
2021/10/06 01:26:49;;;;;;;11.25;2.45;;;;;;;12.66;75.29;101140.25;5015927;28;20049;-71
2021/10/06 01:29:16;;;;;;;11.40;1.92;;;;;;;12.60;75.52;101144.25;5016677;28;20347;-70
2021/10/06 01:31:45;;;;;;;14.73;1.80;;;;;;;12.77;75.79;101147.13;5031878;28;20046;-70
2021/10/06 01:34:13;;;;;;;12.75;1.73;;;;;;;12.60;75.64;101153.38;5014926;28;20061;-70
2021/10/06 01:36:40;;;;;;;16.33;2.08;;;;;;;12.48;76.42;101161.44;5016920;28;20045;-61
2021/10/06 01:39:09;;;;;;;11.77;2.30;;;;;;;12.50;76.24;101170.19;5011135;28;20049;-70
2021/10/06 01:41:36;;;;;;;10.45;1.95;;;;;;;12.55;76.76;101169.25;5055755;28;20045;-74
2021/10/06 01:44:04;;;;;;;13.50;2.42;;;;;;;12.65;75.64;101160.69;5054417;28;20059;-71
2021/10/06 01:46:31;;;;;;;9.07;1.70;;;;;;;12.64;75.96;101161.84;5055796;28;20049;-71
2021/10/06 01:48:58;;;;;;;13.73;1.55;;;;;;;12.59;76.11;101170.28;5055975;28;20057;-69
2021/10/06 01:51:25;;;;;;;15.98;1.65;;;;;;;12.58;76.22;101158.41;5055574;28;20053;-70
2021/10/06 01:53:53;;;;;;;10.50;1.77;;;;;;;12.62;75.77;101161.34;5055739;28;20060;-69
2021/10/06 01:56:20;;;;;;;18.13;2.45;;;;;;;12.73;76.34;101165.44;5055579;28;20063;-70
2021/10/06 01:58:49;;;;;;;10.82;1.75;;;;;;;12.76;75.38;101165.63;5055713;28;20060;-71
2021/10/06 02:01:16;;;;;;;7.15;1.13;;;;;;;12.75;75.58;101164.00;5055593;28;20055;-70
2021/10/06 02:03:44;;;;;;;9.15;1.17;;;;;;;12.93;75.26;101167.69;5054006;28;20052;-69
2021/10/06 02:06:14;;;;;;;11.20;1.92;;;;;;;12.86;74.82;101156.28;5055660;28;20060;-61
2021/10/06 02:08:41;;;;;;;14.20;2.30;;;;;;;12.89;76.39;101153.69;5055579;28;20510;-60
2021/10/06 02:11:08;;;;;;;11.43;1.90;;;;;;;12.81;75.79;101154.47;5037922;28;20064;-60
2021/10/06 02:13:36;;;;;;;10.88;1.95;;;;;;;12.80;76.02;101154.75;5037618;28;20056;-62
2021/10/06 02:16:04;;;;;;;16.15;1.70;;;;;;;12.67;75.08;101155.69;5055478;28;20059;-61
2021/10/06 02:18:31;;;;;;;13.88;1.98;;;;;;;12.54;76.10;101162.91;5055499;28;20060;-61
2021/10/06 02:20:59;;;;;;;14.23;1.60;;;;;;;12.44;76.28;101168.69;5040733;28;20054;-62
2021/10/06 02:23:26;;;;;;;11.05;1.13;;;;;;;12.32;76.86;101169.28;5035352;28;20060;-61
2021/10/06 02:25:53;;;;;;;12.52;1.30;;;;;;;12.33;76.87;101175.59;5034744;28;20053;-62
2021/10/06 02:28:21;;;;;;;14.30;2.08;;;;;;;12.39;76.89;101174.34;5035056;28;20053;-61
2021/10/06 02:30:49;;;;;;;9.02;1.70;;;;;;;12.38;77.01;101165.25;5035478;28;20477;-71
2021/10/06 02:33:17;;;;;;;11.88;1.58;;;;;;;12.30;77.04;101171.53;5035028;28;20064;-69
2021/10/06 02:35:44;;;;;;;10.30;1.50;;;;;;;12.35;77.20;101173.34;5035340;28;20164;-62
2021/10/06 02:38:11;;;;;;;7.30;1.55;;;;;;;12.29;77.71;101174.63;5034300;28;20057;-61
2021/10/06 02:40:39;;;;;;;13.68;1.60;;;;;;;12.30;78.09;101179.00;5053567;28;20361;-61
2021/10/06 02:43:06;;;;;;;9.02;1.55;;;;;;;12.36;77.41;101186.84;5054851;28;20049;-70
2021/10/06 02:45:33;;;;;;;11.50;1.50;;;;;;;12.49;77.57;101193.44;5053596;28;20056;-70
2021/10/06 02:48:01;;;;;;;14.10;1.70;;;;;;;12.40;76.33;101192.56;5055169;28;20459;-71
2021/10/06 02:50:28;;;;;;;8.88;1.80;;;;;;;12.53;77.70;101188.94;5053572;28;20057;-64
2021/10/06 02:52:55;;;;;;;7.35;1.30;;;;;;;12.43;76.74;101198.28;5054080;28;20045;-70
2021/10/06 02:55:23;;;;;;;12.38;2.00;;;;;;;12.60;76.97;101197.59;5054979;28;20436;-74
2021/10/06 02:57:50;;;;;;;9.82;1.83;;;;;;;12.58;76.40;101205.38;5054899;28;20060;-62
2021/10/06 03:00:17;;;;;;;11.75;1.63;;;;;;;12.49;76.19;101201.72;5055033;28;20049;-70
2021/10/06 03:02:45;;;;;;;11.93;1.80;;;;;;;12.48;77.71;101210.34;5055093;28;20045;-70
2021/10/06 03:05:13;;;;;;;13.43;1.90;;;;;;;12.45;77.39;101209.84;5054985;28;20045;-69
2021/10/06 03:07:40;;;;;;;10.10;1.42;;;;;;;12.22;78.45;101199.09;5054912;28;20056;-69
2021/10/06 03:10:10;;;;;;;7.93;1.63;;;;;;;12.28;78.31;101211.63;5053773;28;20060;-70
2021/10/06 03:12:38;;;;;;;14.37;1.90;;;;;;;12.21;78.47;101208.50;5053682;28;20056;-72
2021/10/06 03:15:07;;;;;;;15.30;2.03;;;;;;;12.28;78.33;101215.22;5054572;28;20060;-62
2021/10/06 03:17:34;;;;;;;9.70;1.40;;;;;;;12.41;78.20;101210.78;5054707;28;20389;-62
2021/10/06 03:20:04;;;;;;;14.57;1.80;;;;;;;12.35;77.84;101221.13;5053368;28;20045;-71
2021/10/06 03:22:31;;;;;;;12.68;2.03;;;;;;;12.31;77.93;101216.53;5017801;28;20041;-70
2021/10/06 03:24:58;;;;;;;7.18;1.60;;;;;;;12.26;77.48;101220.25;5034412;28;20060;-70
2021/10/06 03:27:25;;;;;;;10.45;1.88;;;;;;;12.21;78.62;101228.66;5032823;28;20066;-71
2021/10/06 03:29:53;;;;;;;15.90;2.40;;;;;;;12.12;78.22;101216.72;5034572;28;20053;-69
2021/10/06 03:32:20;;;;;;;13.07;1.90;;;;;;;12.24;78.14;101224.44;5035526;28;20061;-70
2021/10/06 03:34:47;;;;;;;13.80;1.67;;;;;;;12.17;78.57;101224.88;5037162;28;20057;-69
2021/10/06 03:37:15;;;;;;;9.52;1.63;;;;;;;12.16;78.39;101225.19;5036574;28;20052;-69
2021/10/06 03:39:42;;;;;;;10.55;1.80;;;;;;;12.08;78.48;101234.22;5045499;28;20433;-70
2021/10/06 03:42:10;;;;;;;9.40;1.58;;;;;;;12.08;79.26;101235.00;5054139;28;20060;-61
2021/10/06 03:44:37;;;;;;;15.43;1.73;;;;;;;12.22;79.17;101235.00;5054272;28;20128;-62
2021/10/06 03:47:04;;;;;;;11.48;2.45;;;;;;;12.19;78.49;101253.00;5036517;28;21060;-62
2021/10/06 03:49:32;;;;;;;15.85;1.85;;;;;;;12.11;78.88;101245.47;5038031;28;20048;-61
2021/10/06 03:51:59;;;;;;;13.90;1.67;;;;;;;12.26;78.50;101250.63;5058078;28;20060;-61
2021/10/06 03:54:26;;;;;;;14.82;2.05;;;;;;;12.15;77.66;101249.22;5057996;28;20393;-61
2021/10/06 03:56:54;;;;;;;12.18;1.73;;;;;;;12.24;78.55;101247.34;5040099;28;20534;-62
2021/10/06 03:59:21;;;;;;;8.43;1.55;;;;;;;12.39;78.59;101257.25;5057898;28;20496;-62
2021/10/06 04:01:48;;;;;;;8.05;1.73;;;;;;;12.33;78.91;101255.72;5056394;28;20060;-64
2021/10/06 04:04:16;;;;;;;12.75;1.92;;;;;;;12.45;77.59;101267.84;5056406;28;20049;-62
2021/10/06 04:06:43;;;;;;;14.57;1.73;;;;;;;12.19;77.59;101279.78;5056592;28;20056;-61
2021/10/06 04:09:11;;;;;;;12.10;1.88;;;;;;;12.02;78.50;101269.41;5056147;28;20052;-64
2021/10/06 04:11:38;;;;;;;13.00;2.05;;;;;;;12.19;79.02;101282.56;5056291;28;20072;-61
2021/10/06 04:14:05;;;;;;;8.18;1.52;;;;;;;12.14;78.61;101275.22;5057804;28;20045;-63
2021/10/06 04:16:33;;;;;;;11.52;2.05;;;;;;;12.02;78.30;101291.50;5040174;28;20057;-63
2021/10/06 04:19:00;;;;;;;9.43;1.80;;;;;;;12.08;78.93;101279.19;5056571;28;20049;-63
2021/10/06 04:21:28;;;;;;;13.13;1.75;;;;;;;12.19;78.45;101280.63;5056369;28;20052;-63
2021/10/06 04:24:07;;;;;;;7.60;1.83;;;;;;;12.29;78.29;101285.91;5016866;28;20038;-72
2021/10/06 04:26:34;;;;;;;13.57;2.15;;;;;;;12.14;78.34;101282.66;5032704;28;20401;-63
2021/10/06 04:29:02;;;;;;;14.13;1.73;;;;;;;12.07;78.64;101288.63;5032714;28;20054;-62
2021/10/06 04:31:30;;;;;;;7.65;1.30;;;;;;;12.12;78.92;101279.41;5017415;28;20090;-71
2021/10/06 04:33:57;;;;;;;10.98;1.83;;;;;;;12.01;79.20;101280.75;5016342;28;20076;-72
2021/10/06 04:36:24;;;;;;;9.07;1.35;;;;;;;11.98;79.56;101286.88;5017514;28;20053;-70
2021/10/06 04:38:52;;;;;;;9.77;1.92;;;;;;;11.93;79.98;101287.00;5023719;28;20057;-70
2021/10/06 04:41:19;;;;;;;10.95;1.25;;;;;;;12.04;80.44;101277.38;5057184;28;20053;-70
2021/10/06 04:43:47;;;;;;;13.05;1.65;;;;;;;12.02;79.79;101282.38;5057065;28;20044;-71
2021/10/06 04:46:16;;;;;;;11.82;1.70;;;;;;;12.34;79.83;101283.03;5055648;28;20048;-74
2021/10/06 04:48:43;;;;;;;11.80;2.00;;;;;;;12.19;78.78;101288.06;5057633;28;20080;-70
2021/10/06 04:51:10;;;;;;;12.05;1.70;;;;;;;12.20;80.03;101286.97;5054777;28;20060;-71
2021/10/06 04:53:37;;;;;;;15.80;1.92;;;;;;;12.16;79.28;101289.53;5057176;28;20093;-71
2021/10/06 04:56:05;;;;;;;14.25;1.90;;;;;;;12.24;79.07;101305.34;5039187;28;20059;-70
2021/10/06 04:58:32;;;;;;;12.23;1.80;;;;;;;12.22;78.88;101298.53;5057020;28;20061;-71
2021/10/06 05:00:59;;;;;;;9.80;2.10;;;;;;;12.15;79.13;101290.63;5056008;28;20488;-70
2021/10/06 05:03:27;;;;;;;11.85;2.05;;;;;;;12.16;79.31;101297.81;5057029;28;20059;-70
2021/10/06 05:05:54;;;;;;;9.52;1.77;;;;;;;12.16;79.62;101302.50;5057150;28;20060;-69
2021/10/06 05:08:21;;;;;;;13.98;2.90;;;;;;;12.09;79.64;101302.94;5057011;28;20504;-70
2021/10/06 05:10:49;;;;;;;13.27;3.30;;;;;;;12.34;79.56;101307.88;5056803;28;20064;-72
2021/10/06 05:13:16;;;;;;;15.45;2.85;;;;;;;12.38;77.83;101317.19;5056608;28;20052;-72
2021/10/06 05:15:43;;;;;;;12.13;2.65;;;;;;;12.34;78.02;101324.47;5038130;28;20658;-61
2021/10/06 05:18:11;;;;;;;13.90;1.90;;;;;;;12.27;79.17;101323.28;5055185;28;20064;-63
2021/10/06 05:20:38;;;;;;;12.27;2.03;;;;;;;12.21;79.10;101328.06;5056268;28;20488;-62
2021/10/06 05:23:05;;;;;;;15.93;1.80;;;;;;;12.40;78.34;101327.94;5044153;28;20046;-61
2021/10/06 05:25:35;;;;;;;11.40;2.95;;;;;;;12.09;79.58;101333.31;5036347;28;20053;-63
2021/10/06 05:28:03;;;;;;;12.00;3.20;;;;;;;12.16;79.67;101333.72;5036062;28;20641;-62
2021/10/06 05:30:30;;;;;;;8.52;2.08;;;;;;;12.25;80.08;101339.31;5034678;28;20060;-61
2021/10/06 05:32:57;;;;;;;12.18;1.90;;;;;;;12.24;79.10;101341.25;5034696;28;20046;-63
2021/10/06 05:35:25;;;;;;;11.15;2.50;;;;;;;12.31;79.36;101341.66;5036376;28;20412;-63
2021/10/06 05:37:53;;;;;;;11.45;1.77;;;;;;;12.20;78.76;101347.72;5036510;28;20057;-63
2021/10/06 05:40:20;;;;;;;13.02;1.90;;;;;;;12.03;79.15;101353.06;5046810;28;20512;-62
2021/10/06 05:42:48;;;;;;;10.88;1.83;;;;;;;12.08;79.73;101352.97;5035177;28;20049;-61
2021/10/06 05:45:15;;;;;;;8.93;1.83;;;;;;;12.03;80.30;101358.59;5035040;28;20505;-63
2021/10/06 05:47:42;;;;;;;11.25;2.25;;;;;;;12.23;79.05;101364.50;5026799;28;20050;-62
2021/10/06 05:50:10;;;;;;;11.52;2.70;;;;;;;12.19;79.03;101370.94;5026028;28;20045;-62
2021/10/06 05:52:37;;;;;;;9.45;1.73;;;;;;;12.16;79.41;101372.38;5020512;28;20060;-61
2021/10/06 05:55:05;;;;;;;13.63;1.90;;;;;;;12.12;78.25;101376.88;5018126;28;20056;-63
2021/10/06 05:57:33;;;;;;;14.02;2.15;;;;;;;11.98;80.30;101372.47;5030740;28;20049;-62
2021/10/06 06:00:00;;;;;;;11.00;1.83;;;;;;;12.21;79.40;101376.97;5023763;28;20058;-62
2021/10/06 06:02:27;;;;;;;11.85;1.70;;;;;;;11.98;79.49;101386.28;5029778;28;20409;-61
2021/10/06 06:04:55;;;;;;;12.38;2.35;;;;;;;11.87;80.26;101382.88;5035198;28;20112;-61
2021/10/06 06:07:22;;;;;;;14.60;2.00;;;;;;;11.93;79.94;101381.69;5035541;28;20596;-61
2021/10/06 06:09:49;;;;;;;17.92;2.70;;;;;;;12.08;79.66;101378.59;5033254;28;20045;-62
2021/10/06 06:12:16;;;;;;;10.63;2.00;;;;;;;12.14;79.60;101382.09;5033312;28;20886;-62
2021/10/06 06:14:44;;;;;;;9.27;2.50;;;;;;;12.05;79.29;101376.47;5033578;28;20045;-62
2021/10/06 06:17:11;;;;;;;16.67;2.88;;;;;;;12.00;79.74;101384.84;5034413;28;20405;-66
2021/10/06 06:19:39;;;;;;;12.15;1.85;;;;;;;12.45;79.51;101388.59;5034666;28;20052;-66
2021/10/06 06:22:06;;;;;;;12.13;1.73;;;;;;;12.38;79.59;101391.78;5032744;28;20046;-65
2021/10/06 06:24:33;;;;;;;12.88;2.58;;;;;;;12.16;79.21;101390.88;5035090;28;20050;-67
2021/10/06 06:27:01;;;;;;;12.40;2.25;;;;;;;12.46;78.95;101390.25;5034750;28;20056;-67
2021/10/06 06:29:28;;;;;;;16.95;3.25;;;;;;;12.58;77.98;101403.53;5032418;28;20627;-67
2021/10/06 06:31:56;;;;;;;18.08;2.55;;;;;;;12.75;77.56;101400.91;5031914;28;20052;-66
2021/10/06 06:34:24;;;;;;;17.80;2.63;;;;;;;12.76;77.06;101406.13;5032081;28;20049;-61
2021/10/06 06:36:51;;;;;;;14.13;2.75;;;;;;;12.67;76.34;101402.50;5031798;28;20056;-64
2021/10/06 06:39:23;;;;;;;15.65;2.08;;;;;;;12.79;76.52;101400.00;5032963;28;20053;-62
2021/10/06 06:41:51;;;;;;;9.93;2.40;;;;;;;12.23;78.02;101402.34;5033327;28;20054;-63
2021/10/06 06:44:18;;;;;;;14.02;2.20;;;;;;;12.47;77.78;101405.69;5032060;28;20054;-64
2021/10/06 06:46:46;;;;;;;14.88;3.17;;;;;;;12.48;77.35;101410.09;5031445;28;20057;-64
2021/10/06 06:49:14;;;;;;;15.23;2.72;;;;;;;12.53;76.95;101407.22;5030603;28;20068;-64
2021/10/06 06:51:41;;;;;;;14.70;2.38;;;;;;;12.72;76.35;101424.50;5033461;28;20048;-64
2021/10/06 06:54:08;;;;;;;14.98;2.80;;;;;;;12.54;77.09;101428.19;5040407;28;20041;-64
2021/10/06 06:56:38;;;;;;;12.48;2.08;;;;;;;12.68;76.94;101419.88;5032707;28;20064;-65
2021/10/06 06:59:07;;;;;;;12.43;2.55;;;;;;;12.73;76.32;101425.28;5031933;28;20049;-64
2021/10/06 07:01:35;;;;;;;10.93;2.30;;;;;;;12.89;75.88;101432.94;5031943;28;20638;-64
2021/10/06 07:04:03;;;;;;;17.05;2.67;;;;;;;12.89;75.50;101430.19;5016372;28;20045;-64
2021/10/06 07:06:34;;;;;;;18.35;2.38;;;;;;;12.73;76.20;101434.41;5032385;28;20408;-64
2021/10/06 07:09:04;;;;;;;14.50;2.67;;;;;;;12.62;76.60;101444.06;5032305;28;20064;-64
2021/10/06 07:11:32;;;;;;;12.82;2.30;;;;;;;13.00;75.73;101439.06;5032532;28;20038;-63
2021/10/06 07:14:00;;;;;;;11.65;2.67;;;;;;;12.96;75.71;101446.34;5034361;28;20054;-64
2021/10/06 07:16:27;;;;;;;15.50;2.30;;;;;;;12.96;74.93;101449.91;5032374;28;20042;-64
2021/10/06 07:18:54;;;;;;;10.75;2.10;;;;;;;13.02;74.96;101456.97;5016335;28;20064;-63
2021/10/06 07:21:22;;;;;;;14.13;2.22;;;;;;;13.25;74.64;101457.88;5033456;28;20053;-62
2021/10/06 07:23:49;;;;;;;16.15;2.30;;;;;;;12.96;74.73;101463.75;5035463;28;20366;-63
2021/10/06 07:26:17;;;;;;;16.02;2.58;;;;;;;12.76;75.49;101466.16;5050795;28;20148;-63
2021/10/06 07:28:48;;;;;;;13.65;1.90;;;;;;;12.87;75.32;101482.19;5020235;28;20045;-64
2021/10/06 07:31:15;;;;;;;14.52;2.10;;;;;;;12.68;75.43;101469.63;5036766;28;20050;-63
2021/10/06 07:33:44;;;;;;;15.60;2.10;;;;;;;12.72;76.68;101470.66;5037913;28;20072;-63
2021/10/06 07:36:11;;;;;;;9.93;2.15;;;;;;;12.43;75.85;101470.97;5037320;28;20060;-63
2021/10/06 07:38:39;;;;;;;9.75;2.00;;;;;;;12.59;77.24;101463.22;5036425;28;20057;-62
2021/10/06 07:41:07;;;;;;;13.30;2.00;;;;;;;13.03;76.23;101464.19;5036775;28;20053;-63
2021/10/06 07:43:34;;;;;;;16.10;2.35;;;;;;;12.97;74.54;101478.41;5037028;28;20050;-63
2021/10/06 07:46:03;;;;;;;11.60;2.78;;;;;;;12.93;75.32;101463.56;5035061;28;20056;-64
2021/10/06 07:48:30;;;;;;;13.63;2.28;;;;;;;12.89;75.76;101476.34;5037527;28;20049;-65
2021/10/06 07:50:58;;;;;;;13.15;1.77;;;;;;;12.99;75.09;101473.38;5037275;28;20076;-63
2021/10/06 07:53:26;;;;;;;14.93;2.25;;;;;;;13.07;74.57;101479.03;5036587;28;20072;-64
2021/10/06 07:55:53;;;;;;;12.40;2.17;;;;;;;13.28;74.15;101476.59;5036128;28;20117;-62
2021/10/06 07:58:20;;;;;;;12.60;2.10;;;;;;;13.21;74.02;101487.28;5036900;28;20141;-63
2021/10/06 08:00:47;;;;;;;11.82;2.15;;;;;;;13.49;72.85;101488.81;5036782;28;20054;-65
2021/10/06 08:03:16;;;;;;;12.55;2.00;;;;;;;13.57;72.77;101491.66;5019254;28;20056;-64
2021/10/06 08:05:44;;;;;;;16.38;2.85;;;;;;;13.64;72.15;101501.44;5037094;28;20049;-63
2021/10/06 08:08:12;;;;;;;9.05;1.98;;;;;;;13.47;71.89;101500.19;5034850;28;20100;-63
2021/10/06 08:10:40;;;;;;;11.60;2.08;;;;;;;13.30;73.57;101496.47;5037014;28;20057;-61
2021/10/06 08:13:07;;;;;;;10.88;2.08;;;;;;;13.39;72.87;101511.16;5036675;28;20053;-61
2021/10/06 08:15:35;;;;;;;14.50;1.98;;;;;;;13.35;73.02;101501.88;5037030;28;20060;-65
2021/10/06 08:18:03;;;;;;;12.50;2.30;;;;;;;13.39;72.57;101514.78;5036122;28;20045;-62
2021/10/06 08:20:34;;;;;;;13.57;2.45;;;;;;;13.42;72.78;101510.56;5035475;28;20065;-63
2021/10/06 08:23:03;;;;;;;14.60;2.45;;;;;;;13.69;72.43;101520.69;5036777;28;20065;-62
2021/10/06 08:25:30;;;;;;;12.63;2.55;;;;;;;13.95;71.28;101519.75;5037381;28;20049;-63
2021/10/06 08:27:58;;;;;;;11.68;1.92;;;;;;;13.75;71.32;101519.44;5035035;28;20064;-64
2021/10/06 08:30:29;;;;;;;11.48;1.98;;;;;;;13.46;71.91;101515.16;5035103;28;20057;-61
2021/10/06 08:32:56;;;;;;;14.15;1.90;;;;;;;13.45;72.30;101524.59;5036011;28;20061;-63
2021/10/06 08:35:23;;;;;;;17.25;2.63;;;;;;;13.44;72.36;101520.19;5035593;28;20045;-63
2021/10/06 08:37:53;;;;;;;15.47;2.63;;;;;;;13.45;72.49;101526.53;5036834;28;20049;-61
2021/10/06 08:40:22;;;;;;;12.60;1.90;;;;;;;13.68;72.03;101527.38;5049839;28;20052;-62
2021/10/06 08:42:50;;;;;;;13.43;2.05;;;;;;;13.82;72.14;101534.50;5051337;28;20045;-62
2021/10/06 08:45:17;;;;;;;15.32;2.58;;;;;;;13.82;71.36;101534.50;5036571;28;20045;-62
2021/10/06 08:47:44;;;;;;;13.52;2.25;;;;;;;13.56;71.89;101531.50;5034595;28;20049;-63
2021/10/06 08:50:15;;;;;;;11.65;2.38;;;;;;;13.77;71.70;101531.84;5023987;28;20061;-62
2021/10/06 08:52:47;;;;;;;12.88;1.80;;;;;;;13.99;71.26;101528.25;5035281;28;20049;-62
2021/10/06 08:55:15;;;;;;;17.15;2.22;;;;;;;14.07;71.36;101533.81;5036309;28;20106;-64
2021/10/06 08:57:42;;;;;;;11.73;2.35;;;;;;;14.07;70.95;101530.25;5036426;28;20052;-62
2021/10/06 09:00:11;;;;;;;13.90;2.63;;;;;;;14.01;71.06;101535.13;5036158;28;20512;-63
2021/10/06 09:02:42;;;;;;;15.38;3.50;;;;;;;13.87;71.18;101539.91;5036244;28;20045;-63
2021/10/06 09:05:12;;;;;;;17.35;2.85;;;;;;;13.85;71.88;101536.63;5034422;28;20049;-63
2021/10/06 09:07:58;;;;;;;15.05;2.90;;;;;;;14.07;71.12;101536.59;5034747;28;20050;-63
2021/10/06 09:10:28;;;;;;;15.27;2.28;;;;;;;14.19;70.50;101539.59;5036054;28;20420;-63
2021/10/06 09:13:14;;;;;;;20.13;2.30;;;;;;;14.27;70.12;101536.09;5036027;28;20139;-63
2021/10/06 09:15:43;;;;;;;12.07;2.97;;;;;;;14.35;69.01;101538.09;5017534;28;20493;-62
2021/10/06 09:18:18;;;;;;;12.52;2.70;;;;;;;14.46;69.87;101536.69;5017562;28;20057;-67
2021/10/06 09:20:46;;;;;;;10.85;2.35;;;;;;;14.30;69.96;101548.50;5034597;28;20049;-63
2021/10/06 09:23:16;;;;;;;10.55;2.15;;;;;;;14.33;69.71;101542.34;5033446;28;20060;-63
2021/10/06 09:25:53;;;;;;;18.25;2.47;;;;;;;14.07;69.86;101549.66;5035324;28;20408;-62
2021/10/06 09:28:25;;;;;;;11.73;1.98;;;;;;;14.07;69.84;101546.88;5034711;28;20048;-63
2021/10/06 09:31:05;;;;;;;14.10;2.45;;;;;;;14.17;70.27;101552.16;5035414;28;20061;-63
2021/10/06 09:33:43;;;;;;;;;;;;;;;14.33;69.71;101553.44;5036208;28;20057;-68
2021/10/06 09:36:20;;;;;;;15.57;2.42;;;;;;;14.53;68.45;101550.09;5036442;28;19921;-64
2021/10/06 09:38:53;;;;;;;11.32;1.92;;;;;;;14.46;68.01;101549.72;5040555;28;20041;-63
2021/10/06 09:41:31;;;;;;;11.55;2.08;;;;;;;14.49;68.54;101568.47;5043287;28;20065;-63
2021/10/06 09:44:07;;;;;;;11.95;2.05;;;;;;;14.55;68.14;101556.13;5016430;28;20054;-64
2021/10/06 09:46:58;;;;;;;11.20;2.30;;;;;;;14.68;67.99;101567.09;5017256;28;20050;-64
2021/10/06 09:49:36;;;;;;;12.70;2.00;;;;;;;14.50;67.66;101557.09;5034521;28;20057;-63
2021/10/06 09:52:22;;;;;;;12.43;3.10;;;;;;;14.83;67.11;101554.78;5034467;28;20061;-67
2021/10/06 09:54:56;;;;;;;10.88;2.50;;;;;;;14.73;67.28;101554.25;5035846;28;20049;-65
2021/10/06 09:57:24;;;;;;;14.82;2.30;;;;;;;14.87;67.31;101552.19;5035935;28;20049;-64
2021/10/06 09:59:52;;;;;;;13.25;2.28;;;;;;;14.61;66.63;101563.97;5035869;28;20509;-64
2021/10/06 10:02:19;;;;;;;16.52;3.53;;;;;;;14.75;66.69;101561.09;5033797;28;20049;-64
2021/10/06 10:04:47;;;;;;;16.55;2.72;;;;;;;14.75;66.45;101558.31;5049105;28;20516;-64
2021/10/06 10:07:15;;;;;;;14.10;2.45;;;;;;;15.08;65.89;101569.84;5049429;28;20053;-63
2021/10/06 10:09:42;;;;;;;12.20;2.63;;;;;;;14.90;65.89;101574.53;5035397;28;20421;-64
2021/10/06 10:12:10;;;;;;;17.13;3.17;;;;;;;14.89;66.04;101575.66;5034364;28;20053;-64
2021/10/06 10:14:39;;;;;;;11.82;1.95;;;;;;;15.26;65.42;101565.97;5035061;28;20052;-64
2021/10/06 10:17:06;;;;;;;14.98;2.38;;;;;;;15.18;65.22;101566.78;5032842;28;20072;-68
2021/10/06 10:19:34;;;;;;;13.05;2.78;;;;;;;15.45;64.78;101572.06;5033638;28;20075;-67
2021/10/06 10:22:05;;;;;;;12.75;2.80;;;;;;;15.21;63.83;101568.91;5033370;28;20049;-65
2021/10/06 10:24:43;;;;;;;14.25;2.63;;;;;;;15.22;63.49;101571.34;5032948;28;20045;-66
2021/10/06 10:27:12;;;;;;;13.45;3.67;;;;;;;15.30;64.75;101576.09;5033247;28;20057;-66
2021/10/06 10:29:57;;;;;;;14.43;2.67;;;;;;;15.18;62.96;101581.47;5044789;28;20050;-65
2021/10/06 10:32:26;;;;;;;11.75;2.58;;;;;;;15.20;63.22;101589.47;5033529;28;20065;-65
2021/10/06 10:35:07;;;;;;;10.83;2.13;;;;;;;15.18;62.56;101581.47;5034818;28;20390;-65
2021/10/06 10:37:57;;;;;;;9.85;2.38;;;;;;;15.30;63.08;101578.06;5029390;28;20058;-64
2021/10/06 10:40:34;;;;;;;14.77;3.00;;;;;;;15.28;62.40;101589.50;5030946;28;20390;-65
2021/10/06 10:43:29;;;;;;;14.00;2.60;;;;;;;15.51;61.68;101591.03;5033997;28;20049;-64
2021/10/06 10:45:59;;;;;;;16.55;2.88;;;;;;;15.36;61.56;101582.31;5031126;28;20057;-66
2021/10/06 10:48:29;;;;;;;27.50;8.27;;;;;;;15.83;60.55;101589.72;5034859;28;20057;-65
2021/10/06 10:50:57;;;;;;;18.40;3.75;;;;;;;15.82;61.93;101592.81;5034393;28;20057;-65
2021/10/06 10:53:50;;;;;;;11.35;2.40;;;;;;;15.71;60.96;101595.09;5034873;28;20045;-64
2021/10/06 10:56:41;;;;;;;13.05;2.33;;;;;;;15.49;60.27;101590.53;5032160;28;20061;-65
2021/10/06 10:59:11;;;;;;;14.85;3.03;;;;;;;15.47;60.00;101594.75;5034273;28;20041;-65
2021/10/06 11:01:49;;;;;;;12.45;3.40;;;;;;;15.50;60.75;101606.03;5021310;28;20492;-64
2021/10/06 11:04:31;;;;;;;9.40;1.80;;;;;;;15.72;60.22;101588.44;5038938;28;20072;-64
2021/10/06 11:07:18;;;;;;;15.25;2.95;;;;;;;15.65;59.70;101586.16;5037770;28;20765;-63
2021/10/06 11:09:59;;;;;;;7.97;3.22;;;;;;;15.75;59.39;101590.53;5039802;28;20404;-64
2021/10/06 11:12:32;;;;;;;11.65;3.20;;;;;;;15.77;59.86;101582.69;5038845;28;20049;-65
2021/10/06 11:15:16;;;;;;;7.93;3.28;;;;;;;15.53;58.39;101582.38;5021313;28;20051;-67
2021/10/06 11:18:06;;;;;;;10.85;2.20;;;;;;;15.48;58.60;101594.44;5042304;28;20064;-65
2021/10/06 11:21:01;;;;;;;13.73;2.10;;;;;;;15.55;58.86;101582.88;5035854;28;20501;-66
2021/10/06 11:23:31;;;;;;;11.20;2.22;;;;;;;15.73;57.88;101604.75;5037469;28;20065;-64
2021/10/06 11:26:01;;;;;;;13.27;2.72;;;;;;;15.58;57.80;101605.25;5037253;28;20054;-65
2021/10/06 11:28:30;;;;;;;9.23;2.20;;;;;;;15.61;58.00;101596.25;5038833;28;20060;-64